Buffalo Gap, Texas
Current Conditions -  °F | °C
As of 8:58 PM on Sunday 23 Nov 2014 (Local Time) from KDYS Reporting Station
Scattered Clouds Scattered Clouds  
Wind Chill: 41°   Ceiling: Unl
Heat Index: 48°   Visibility: 10mi
Dew Point: 35°   Wind: 21mph
Humidity: 60%   Direction: 350°N
Pressure: 29.86"   Gusts: 30mph
Location:  32.28°N, 99.83°W
Report Text: KDYS 240258Z AUTO 35018G26KT 10SM FEW110 SCT140 09/02 A2986 RMK AO2 PK WND 34028/0159 SLP098 T00880015 52054 $
Loading
Personal Weather Stations






























Interactive Weather Map New forecast layout! Learn more

10-Day Weather Forecast

Advertisements
Track Severe Weather on mobile